sensor_id;sensor_type;location;lat;lon;timestamp;pressure;altitude;pressure_sealevel;temperature;humidity
55066;BME280;40964;42.114;24.220;2023-04-28T00:00:27;98039.81;;;9.44;54.82
55066;BME280;40964;42.114;24.220;2023-04-28T00:02:52;98043.03;;;9.32;55.18
55066;BME280;40964;42.114;24.220;2023-04-28T00:05:18;98033.38;;;9.26;55.75
55066;BME280;40964;42.114;24.220;2023-04-28T00:07:44;98034.75;;;9.22;55.61
55066;BME280;40964;42.114;24.220;2023-04-28T00:10:10;98040.81;;;9.09;56.04
55066;BME280;40964;42.114;24.220;2023-04-28T00:12:35;98032.13;;;9.02;56.27
55066;BME280;40964;42.114;24.220;2023-04-28T00:15:01;98027.47;;;8.91;56.65
55066;BME280;40964;42.114;24.220;2023-04-28T00:17:27;98041.78;;;8.82;56.97
55066;BME280;40964;42.114;24.220;2023-04-28T00:19:53;98035.28;;;8.71;57.33
55066;BME280;40964;42.114;24.220;2023-04-28T00:22:18;98045.19;;;8.63;57.47
55066;BME280;40964;42.114;24.220;2023-04-28T00:24:44;98047.97;;;8.55;57.25
55066;BME280;40964;42.114;24.220;2023-04-28T00:27:09;98041.47;;;8.37;56.89
55066;BME280;40964;42.114;24.220;2023-04-28T00:29:35;98049.44;;;8.29;56.64
55066;BME280;40964;42.114;24.220;2023-04-28T00:32:01;98052.03;;;8.22;57.34
55066;BME280;40964;42.114;24.220;2023-04-28T00:34:27;98041.06;;;8.06;55.31
55066;BME280;40964;42.114;24.220;2023-04-28T00:36:54;98047.56;;;8.10;53.55
55066;BME280;40964;42.114;24.220;2023-04-28T00:39:20;98048.78;;;8.14;53.31
55066;BME280;40964;42.114;24.220;2023-04-28T00:41:47;98044.34;;;8.14;53.53
55066;BME280;40964;42.114;24.220;2023-04-28T00:44:12;98040.69;;;8.09;52.07
55066;BME280;40964;42.114;24.220;2023-04-28T00:46:38;98042.72;;;8.13;52.07
55066;BME280;40964;42.114;24.220;2023-04-28T00:49:03;98041.91;;;8.13;52.64
55066;BME280;40964;42.114;24.220;2023-04-28T00:51:29;98030.22;;;8.09;52.90
55066;BME280;40964;42.114;24.220;2023-04-28T00:53:55;98035.84;;;8.06;53.32
55066;BME280;40964;42.114;24.220;2023-04-28T00:56:21;98039.06;;;8.08;52.46
55066;BME280;40964;42.114;24.220;2023-04-28T00:58:47;98035.47;;;8.09;52.71
55066;BME280;40964;42.114;24.220;2023-04-28T01:01:12;98035.22;;;8.04;52.38
55066;BME280;40964;42.114;24.220;2023-04-28T01:03:39;98032.81;;;8.02;52.43
55066;BME280;40964;42.114;24.220;2023-04-28T01:06:06;98035.84;;;8.06;51.84
55066;BME280;40964;42.114;24.220;2023-04-28T01:08:33;98038.88;;;8.09;51.61
55066;BME280;40964;42.114;24.220;2023-04-28T01:10:59;98019.91;;;8.07;50.97
55066;BME280;40964;42.114;24.220;2023-04-28T01:13:26;98037.88;;;8.17;50.62
55066;BME280;40964;42.114;24.220;2023-04-28T01:15:52;98044.78;;;8.24;50.86
55066;BME280;40964;42.114;24.220;2023-04-28T01:18:18;98038.13;;;8.22;51.12
55066;BME280;40964;42.114;24.220;2023-04-28T01:20:43;98041.75;;;8.21;50.14
55066;BME280;40964;42.114;24.220;2023-04-28T01:23:13;98033.50;;;8.24;50.30
55066;BME280;40964;42.114;24.220;2023-04-28T01:25:39;98030.28;;;8.22;49.66
55066;BME280;40964;42.114;24.220;2023-04-28T01:28:06;98035.91;;;8.25;50.07
55066;BME280;40964;42.114;24.220;2023-04-28T01:30:31;98034.09;;;8.26;50.19
55066;BME280;40964;42.114;24.220;2023-04-28T01:32:57;98034.31;;;8.24;49.91
55066;BME280;40964;42.114;24.220;2023-04-28T01:35:23;98037.94;;;8.23;50.39
55066;BME280;40964;42.114;24.220;2023-04-28T01:37:48;98026.81;;;8.15;50.20
55066;BME280;40964;42.114;24.220;2023-04-28T01:40:14;98024.38;;;8.13;50.05
55066;BME280;40964;42.114;24.220;2023-04-28T01:42:39;98026.03;;;8.21;49.61
55066;BME280;40964;42.114;24.220;2023-04-28T01:45:05;98019.97;;;8.14;49.42
55066;BME280;40964;42.114;24.220;2023-04-28T01:47:31;98022.97;;;8.17;50.50
55066;BME280;40964;42.114;24.220;2023-04-28T01:49:56;98025.81;;;8.16;49.90
55066;BME280;40964;42.114;24.220;2023-04-28T01:52:22;98025.19;;;8.14;50.35
55066;BME280;40964;42.114;24.220;2023-04-28T01:54:49;98033.44;;;8.11;50.14
55066;BME280;40964;42.114;24.220;2023-04-28T01:57:15;98027.97;;;8.06;50.66
55066;BME280;40964;42.114;24.220;2023-04-28T01:59:41;98028.19;;;8.04;50.34
55066;BME280;40964;42.114;24.220;2023-04-28T02:02:06;98031.41;;;8.06;50.34
55066;BME280;40964;42.114;24.220;2023-04-28T02:04:32;98016.09;;;8.03;50.35
55066;BME280;40964;42.114;24.220;2023-04-28T02:06:57;98037.47;;;8.13;50.22
55066;BME280;40964;42.114;24.220;2023-04-28T02:09:23;98037.47;;;8.13;50.78
55066;BME280;40964;42.114;24.220;2023-04-28T02:11:48;98041.88;;;8.06;50.94
55066;BME280;40964;42.114;24.220;2023-04-28T02:14:14;98040.47;;;8.04;51.14
55066;BME280;40964;42.114;24.220;2023-04-28T02:16:39;98036.59;;;8.00;51.63
55066;BME280;40964;42.114;24.220;2023-04-28T02:19:05;98043.63;;;7.92;51.12
55066;BME280;40964;42.114;24.220;2023-04-28T02:21:30;98047.63;;;7.88;51.05
55066;BME280;40964;42.114;24.220;2023-04-28T02:23:57;98052.00;;;7.81;51.44
55066;BME280;40964;42.114;24.220;2023-04-28T02:26:23;98045.94;;;7.74;51.21
55066;BME280;40964;42.114;24.220;2023-04-28T02:28:49;98042.53;;;7.80;49.79
55066;BME280;40964;42.114;24.220;2023-04-28T02:31:14;98053.00;;;7.80;50.59
55066;BME280;40964;42.114;24.220;2023-04-28T02:33:39;98042.53;;;7.80;50.65
55066;BME280;40964;42.114;24.220;2023-04-28T02:36:07;98047.59;;;7.82;50.37
55066;BME280;40964;42.114;24.220;2023-04-28T02:38:33;98049.38;;;7.81;50.07
55066;BME280;40964;42.114;24.220;2023-04-28T02:40:59;98049.38;;;7.81;50.39
55066;BME280;40964;42.114;24.220;2023-04-28T02:43:26;98032.22;;;7.72;50.33
55066;BME280;40964;42.114;24.220;2023-04-28T02:45:51;98050.59;;;7.79;50.12
55066;BME280;40964;42.114;24.220;2023-04-28T02:48:17;98039.31;;;7.78;49.99
55066;BME280;40964;42.114;24.220;2023-04-28T02:50:43;98051.19;;;7.81;50.51
55066;BME280;40964;42.114;24.220;2023-04-28T02:53:10;98050.38;;;7.80;50.40
55066;BME280;40964;42.114;24.220;2023-04-28T02:55:36;98054.63;;;7.81;50.20
55066;BME280;40964;42.114;24.220;2023-04-28T02:58:01;98064.13;;;7.82;50.20
55066;BME280;40964;42.114;24.220;2023-04-28T03:00:27;98045.50;;;7.71;51.03
55066;BME280;40964;42.114;24.220;2023-04-28T03:02:52;98054.94;;;7.65;49.99
55066;BME280;40964;42.114;24.220;2023-04-28T03:05:19;98065.06;;;7.75;50.12
55066;BME280;40964;42.114;24.220;2023-04-28T03:07:44;98065.50;;;7.78;50.30
55066;BME280;40964;42.114;24.220;2023-04-28T03:10:10;98071.13;;;7.75;49.65
55066;BME280;40964;42.114;24.220;2023-04-28T03:12:35;98078.78;;;7.77;49.91
55066;BME280;40964;42.114;24.220;2023-04-28T03:15:01;98077.16;;;7.76;49.53
55066;BME280;40964;42.114;24.220;2023-04-28T03:17:27;98057.13;;;7.61;49.96
55066;BME280;40964;42.114;24.220;2023-04-28T03:19:52;98073.13;;;7.73;51.34
55066;BME280;40964;42.114;24.220;2023-04-28T03:22:18;98069.19;;;7.56;50.56
55066;BME280;40964;42.114;24.220;2023-04-28T03:24:43;98082.69;;;7.59;51.73
55066;BME280;40964;42.114;24.220;2023-04-28T03:27:09;98088.47;;;7.55;53.72
55066;BME280;40964;42.114;24.220;2023-04-28T03:29:34;98090.47;;;7.53;54.93
55066;BME280;40964;42.114;24.220;2023-04-28T03:32:00;98087.38;;;7.43;54.75
55066;BME280;40964;42.114;24.220;2023-04-28T03:34:26;98086.88;;;7.32;55.56
55066;BME280;40964;42.114;24.220;2023-04-28T03:36:51;98092.03;;;7.19;55.62
55066;BME280;40964;42.114;24.220;2023-04-28T03:39:16;98094.00;;;7.17;55.86
55066;BME280;40964;42.114;24.220;2023-04-28T03:41:42;98109.38;;;7.27;55.50
55066;BME280;40964;42.114;24.220;2023-04-28T03:44:07;98107.31;;;7.44;55.19
55066;BME280;40964;42.114;24.220;2023-04-28T03:46:33;98102.91;;;7.72;55.80
55066;BME280;40964;42.114;24.220;2023-04-28T03:48:59;98110.75;;;8.00;54.53
55066;BME280;40964;42.114;24.220;2023-04-28T03:51:27;98114.34;;;8.27;54.47
55066;BME280;40964;42.114;24.220;2023-04-28T03:53:53;98111.09;;;8.60;53.82
55066;BME280;40964;42.114;24.220;2023-04-28T03:56:19;98114.81;;;8.85;51.77
55066;BME280;40964;42.114;24.220;2023-04-28T03:58:45;98122.94;;;9.03;50.95
55066;BME280;40964;42.114;24.220;2023-04-28T04:01:10;98118.34;;;9.32;51.37
55066;BME280;40964;42.114;24.220;2023-04-28T04:03:36;98120.59;;;9.68;50.58
55066;BME280;40964;42.114;24.220;2023-04-28T04:06:02;98120.78;;;10.00;48.84
55066;BME280;40964;42.114;24.220;2023-04-28T04:08:28;98116.09;;;10.28;48.23
55066;BME280;40964;42.114;24.220;2023-04-28T04:10:53;98129.75;;;10.63;46.74
55066;BME280;40964;42.114;24.220;2023-04-28T04:13:20;98135.25;;;11.00;44.99
55066;BME280;40964;42.114;24.220;2023-04-28T04:15:46;98143.94;;;11.32;45.46
55066;BME280;40964;42.114;24.220;2023-04-28T04:18:12;98138.84;;;11.69;44.22
55066;BME280;40964;42.114;24.220;2023-04-28T04:20:38;98147.38;;;11.96;43.83
55066;BME280;40964;42.114;24.220;2023-04-28T04:23:04;98147.34;;;12.20;42.51
55066;BME280;40964;42.114;24.220;2023-04-28T04:25:29;98151.53;;;12.28;42.42
55066;BME280;40964;42.114;24.220;2023-04-28T04:27:56;98154.09;;;12.53;41.18
55066;BME280;40964;42.114;24.220;2023-04-28T04:30:22;98153.16;;;12.66;39.44
55066;BME280;40964;42.114;24.220;2023-04-28T04:32:47;98156.81;;;12.83;38.95
55066;BME280;40964;42.114;24.220;2023-04-28T04:35:12;98156.75;;;13.20;40.21
55066;BME280;40964;42.114;24.220;2023-04-28T04:37:38;98156.34;;;13.04;39.24
55066;BME280;40964;42.114;24.220;2023-04-28T04:40:04;98155.53;;;13.04;38.17
55066;BME280;40964;42.114;24.220;2023-04-28T04:42:30;98160.03;;;12.85;40.12
55066;BME280;40964;42.114;24.220;2023-04-28T04:44:55;98167.50;;;12.88;39.67
55066;BME280;40964;42.114;24.220;2023-04-28T04:47:20;98167.00;;;12.79;40.91
55066;BME280;40964;42.114;24.220;2023-04-28T04:49:47;98179.00;;;12.57;40.72
55066;BME280;40964;42.114;24.220;2023-04-28T04:52:13;98176.19;;;12.77;40.60
55066;BME280;40964;42.114;24.220;2023-04-28T04:54:39;98178.28;;;12.87;39.76
55066;BME280;40964;42.114;24.220;2023-04-28T04:57:04;98177.28;;;12.69;38.55
55066;BME280;40964;42.114;24.220;2023-04-28T04:59:30;98182.84;;;12.43;41.15
55066;BME280;40964;42.114;24.220;2023-04-28T05:01:56;98181.91;;;12.31;41.72
55066;BME280;40964;42.114;24.220;2023-04-28T05:04:21;98181.75;;;12.07;42.41
55066;BME280;40964;42.114;24.220;2023-04-28T05:06:47;98183.75;;;12.30;40.90
55066;BME280;40964;42.114;24.220;2023-04-28T05:09:12;98187.19;;;12.31;42.95
55066;BME280;40964;42.114;24.220;2023-04-28T05:11:38;98190.78;;;12.18;42.03
55066;BME280;40964;42.114;24.220;2023-04-28T05:14:03;98195.16;;;12.06;41.49
55066;BME280;40964;42.114;24.220;2023-04-28T05:16:29;98195.50;;;11.84;41.92
55066;BME280;40964;42.114;24.220;2023-04-28T05:18:54;98193.09;;;11.76;40.78
55066;BME280;40964;42.114;24.220;2023-04-28T05:21:20;98191.19;;;11.58;42.69
55066;BME280;40964;42.114;24.220;2023-04-28T05:23:45;98195.09;;;11.49;41.78
55066;BME280;40964;42.114;24.220;2023-04-28T05:26:11;98187.00;;;11.51;42.39
55066;BME280;40964;42.114;24.220;2023-04-28T05:28:37;98192.31;;;11.44;42.53
55066;BME280;40964;42.114;24.220;2023-04-28T05:31:03;98199.66;;;11.35;41.88
55066;BME280;40964;42.114;24.220;2023-04-28T05:33:28;98190.69;;;11.43;42.44
55066;BME280;40964;42.114;24.220;2023-04-28T05:35:54;98195.75;;;11.45;42.62
55066;BME280;40964;42.114;24.220;2023-04-28T05:38:19;98194.63;;;11.59;43.49
55066;BME280;40964;42.114;24.220;2023-04-28T05:40:45;98197.25;;;11.59;42.84
55066;BME280;40964;42.114;24.220;2023-04-28T05:43:11;98195.66;;;11.58;41.73
55066;BME280;40964;42.114;24.220;2023-04-28T05:45:36;98187.69;;;11.71;41.85
55066;BME280;40964;42.114;24.220;2023-04-28T05:48:02;98202.09;;;11.69;40.68
55066;BME280;40964;42.114;24.220;2023-04-28T05:50:29;98200.19;;;11.76;41.72
55066;BME280;40964;42.114;24.220;2023-04-28T05:52:55;98200.41;;;11.81;42.66
55066;BME280;40964;42.114;24.220;2023-04-28T05:55:20;98180.19;;;11.68;40.33
55066;BME280;40964;42.114;24.220;2023-04-28T05:57:46;98203.88;;;11.68;40.92
55066;BME280;40964;42.114;24.220;2023-04-28T06:00:12;98208.09;;;11.82;42.27
55066;BME280;40964;42.114;24.220;2023-04-28T06:02:37;98212.50;;;11.88;42.61
55066;BME280;40964;42.114;24.220;2023-04-28T06:05:03;98201.78;;;11.83;42.05
55066;BME280;40964;42.114;24.220;2023-04-28T06:07:29;98198.75;;;11.86;41.70
55066;BME280;40964;42.114;24.220;2023-04-28T06:09:54;98204.88;;;12.05;41.78
55066;BME280;40964;42.114;24.220;2023-04-28T06:12:20;98206.31;;;12.26;41.76
55066;BME280;40964;42.114;24.220;2023-04-28T06:14:45;98200.38;;;12.31;43.02
55066;BME280;40964;42.114;24.220;2023-04-28T06:17:10;98201.56;;;12.35;41.58
55066;BME280;40964;42.114;24.220;2023-04-28T06:19:36;98206.78;;;12.41;41.14
55066;BME280;40964;42.114;24.220;2023-04-28T06:22:01;98206.03;;;12.34;40.59
55066;BME280;40964;42.114;24.220;2023-04-28T06:24:27;98205.19;;;12.40;42.20
55066;BME280;40964;42.114;24.220;2023-04-28T06:26:53;98209.50;;;12.35;41.75
55066;BME280;40964;42.114;24.220;2023-04-28T06:29:18;98211.53;;;12.33;40.67
55066;BME280;40964;42.114;24.220;2023-04-28T06:31:45;98213.09;;;12.40;42.09
55066;BME280;40964;42.114;24.220;2023-04-28T06:34:10;98215.66;;;12.47;41.14
55066;BME280;40964;42.114;24.220;2023-04-28T06:36:35;98215.66;;;12.47;40.21
55066;BME280;40964;42.114;24.220;2023-04-28T06:39:01;98213.50;;;12.37;41.26
55066;BME280;40964;42.114;24.220;2023-04-28T06:41:27;98195.97;;;12.49;41.64
55066;BME280;40964;42.114;24.220;2023-04-28T06:43:53;98222.13;;;12.51;40.92
55066;BME280;40964;42.114;24.220;2023-04-28T06:46:19;98219.56;;;12.63;42.07
55066;BME280;40964;42.114;24.220;2023-04-28T06:48:44;98226.03;;;12.85;40.67
55066;BME280;40964;42.114;24.220;2023-04-28T06:51:10;98217.78;;;12.93;41.36
55066;BME280;40964;42.114;24.220;2023-04-28T06:53:36;98218.53;;;13.00;40.05
55066;BME280;40964;42.114;24.220;2023-04-28T06:56:01;98230.56;;;12.96;40.87
55066;BME280;40964;42.114;24.220;2023-04-28T06:58:27;98220.22;;;13.13;39.01
55066;BME280;40964;42.114;24.220;2023-04-28T07:00:53;98220.81;;;13.15;37.24
55066;BME280;40964;42.114;24.220;2023-04-28T07:03:18;98226.84;;;13.04;39.50
55066;BME280;40964;42.114;24.220;2023-04-28T07:05:44;98234.31;;;13.25;39.02
55066;BME280;40964;42.114;24.220;2023-04-28T07:08:09;98234.63;;;13.47;38.96
55066;BME280;40964;42.114;24.220;2023-04-28T07:10:35;98237.88;;;13.49;38.30
55066;BME280;40964;42.114;24.220;2023-04-28T07:13:00;98238.44;;;13.51;38.00
55066;BME280;40964;42.114;24.220;2023-04-28T07:15:26;98237.03;;;13.79;39.52
55066;BME280;40964;42.114;24.220;2023-04-28T07:17:52;98234.00;;;14.05;38.12
55066;BME280;40964;42.114;24.220;2023-04-28T07:20:18;98236.19;;;14.08;37.92
55066;BME280;40964;42.114;24.220;2023-04-28T07:22:43;98238.81;;;14.08;36.96
55066;BME280;40964;42.114;24.220;2023-04-28T07:25:09;98235.38;;;13.96;37.58
55066;BME280;40964;42.114;24.220;2023-04-28T07:27:34;98236.66;;;14.17;36.45
55066;BME280;40964;42.114;24.220;2023-04-28T07:30:00;98197.38;;;13.79;38.00
55066;BME280;40964;42.114;24.220;2023-04-28T07:32:25;98230.47;;;14.23;36.29
55066;BME280;40964;42.114;24.220;2023-04-28T07:34:51;98230.13;;;14.43;39.19
55066;BME280;40964;42.114;24.220;2023-04-28T07:37:17;98228.53;;;14.54;37.53
55066;BME280;40964;42.114;24.220;2023-04-28T07:39:42;98223.94;;;14.61;37.16
55066;BME280;40964;42.114;24.220;2023-04-28T07:42:08;98224.72;;;14.85;36.98
55066;BME280;40964;42.114;24.220;2023-04-28T07:44:34;98227.44;;;15.01;37.22
55066;BME280;40964;42.114;24.220;2023-04-28T07:47:00;98214.13;;;15.25;36.73
55066;BME280;40964;42.114;24.220;2023-04-28T07:49:28;98222.63;;;15.27;34.77
55066;BME280;40964;42.114;24.220;2023-04-28T07:51:54;98217.38;;;15.15;35.77
55066;BME280;40964;42.114;24.220;2023-04-28T07:54:20;98214.34;;;15.23;34.50
55066;BME280;40964;42.114;24.220;2023-04-28T07:56:46;98217.53;;;15.37;35.57
55066;BME280;40964;42.114;24.220;2023-04-28T07:59:12;98196.41;;;15.42;33.48
55066;BME280;40964;42.114;24.220;2023-04-28T08:01:38;98212.69;;;15.46;34.04
55066;BME280;40964;42.114;24.220;2023-04-28T08:04:03;98214.91;;;15.37;33.52
55066;BME280;40964;42.114;24.220;2023-04-28T08:06:29;98213.50;;;15.34;33.67
55066;BME280;40964;42.114;24.220;2023-04-28T08:08:54;98208.34;;;15.56;33.92
55066;BME280;40964;42.114;24.220;2023-04-28T08:11:20;98203.50;;;15.53;34.37
55066;BME280;40964;42.114;24.220;2023-04-28T08:13:47;98212.75;;;15.51;34.98
55066;BME280;40964;42.114;24.220;2023-04-28T08:16:14;98201.97;;;15.69;34.29
55066;BME280;40964;42.114;24.220;2023-04-28T08:18:39;98180.91;;;15.63;33.46
55066;BME280;40964;42.114;24.220;2023-04-28T08:21:05;98201.19;;;15.85;32.78
55066;BME280;40964;42.114;24.220;2023-04-28T08:23:31;98196.69;;;15.86;32.26
55066;BME280;40964;42.114;24.220;2023-04-28T08:25:57;98189.94;;;16.12;33.05
55066;BME280;40964;42.114;24.220;2023-04-28T08:28:22;98201.25;;;16.07;34.19
55066;BME280;40964;42.114;24.220;2023-04-28T08:30:49;98198.66;;;16.63;34.74
55066;BME280;40964;42.114;24.220;2023-04-28T08:33:14;98182.50;;;16.86;31.72
55066;BME280;40964;42.114;24.220;2023-04-28T08:35:40;98160.84;;;17.21;31.79
55066;BME280;40964;42.114;24.220;2023-04-28T08:38:06;98182.00;;;17.65;31.91
55066;BME280;40964;42.114;24.220;2023-04-28T08:40:32;98167.47;;;17.73;32.12
55066;BME280;40964;42.114;24.220;2023-04-28T08:42:58;98162.06;;;17.63;31.30
55066;BME280;40964;42.114;24.220;2023-04-28T08:45:24;98166.16;;;18.07;32.25
55066;BME280;40964;42.114;24.220;2023-04-28T08:47:50;98167.28;;;17.52;32.23
55066;BME280;40964;42.114;24.220;2023-04-28T08:50:20;98169.50;;;17.12;33.63
55066;BME280;40964;42.114;24.220;2023-04-28T08:52:46;98175.56;;;17.34;32.22
55066;BME280;40964;42.114;24.220;2023-04-28T08:55:12;98176.00;;;17.48;33.35
55066;BME280;40964;42.114;24.220;2023-04-28T08:57:49;98177.56;;;17.17;31.78
55066;BME280;40964;42.114;24.220;2023-04-28T09:00:16;98164.13;;;17.60;33.10
55066;BME280;40964;42.114;24.220;2023-04-28T09:02:41;98168.41;;;17.89;32.14
55066;BME280;40964;42.114;24.220;2023-04-28T09:05:10;98158.38;;;18.01;34.49
55066;BME280;40964;42.114;24.220;2023-04-28T09:07:37;98161.72;;;18.18;32.19
55066;BME280;40964;42.114;24.220;2023-04-28T09:10:19;98149.63;;;18.42;33.27
55066;BME280;40964;42.114;24.220;2023-04-28T09:12:45;98143.66;;;18.25;30.67
55066;BME280;40964;42.114;24.220;2023-04-28T09:15:31;98144.75;;;17.92;31.96
55066;BME280;40964;42.114;24.220;2023-04-28T09:17:59;98145.94;;;18.06;32.44
55066;BME280;40964;42.114;24.220;2023-04-28T09:20:26;98148.59;;;17.74;30.94
55066;BME280;40964;42.114;24.220;2023-04-28T09:22:53;98145.47;;;17.82;33.22
55066;BME280;40964;42.114;24.220;2023-04-28T09:25:19;98137.16;;;18.11;31.76
55066;BME280;40964;42.114;24.220;2023-04-28T09:27:51;98145.53;;;18.30;31.52
55066;BME280;40964;42.114;24.220;2023-04-28T09:30:16;98134.75;;;18.52;30.35
55066;BME280;40964;42.114;24.220;2023-04-28T09:32:42;98134.38;;;18.85;31.27
55066;BME280;40964;42.114;24.220;2023-04-28T09:35:08;98135.09;;;18.23;30.52
55066;BME280;40964;42.114;24.220;2023-04-28T09:37:34;98129.31;;;17.62;30.76
55066;BME280;40964;42.114;24.220;2023-04-28T09:42:36;98117.00;;;17.83;34.09
55066;BME280;40964;42.114;24.220;2023-04-28T09:45:13;98112.75;;;17.82;32.63
55066;BME280;40964;42.114;24.220;2023-04-28T09:47:40;98112.69;;;18.14;30.60
55066;BME280;40964;42.114;24.220;2023-04-28T09:50:08;98108.56;;;18.33;31.35
55066;BME280;40964;42.114;24.220;2023-04-28T09:52:37;98116.13;;;18.09;31.82
55066;BME280;40964;42.114;24.220;2023-04-28T09:55:04;98118.69;;;18.41;28.98
55066;BME280;40964;42.114;24.220;2023-04-28T09:57:32;98109.91;;;18.41;30.03
55066;BME280;40964;42.114;24.220;2023-04-28T09:59:57;98109.25;;;18.19;29.43
55066;BME280;40964;42.114;24.220;2023-04-28T10:02:24;98114.34;;;17.83;31.69
55066;BME280;40964;42.114;24.220;2023-04-28T10:04:50;98102.25;;;17.70;28.70
55066;BME280;40964;42.114;24.220;2023-04-28T10:07:18;98102.50;;;18.06;30.80
55066;BME280;40964;42.114;24.220;2023-04-28T10:09:49;98079.94;;;18.13;32.12
55066;BME280;40964;42.114;24.220;2023-04-28T10:12:21;98094.84;;;18.62;30.34
55066;BME280;40964;42.114;24.220;2023-04-28T10:14:48;98090.75;;;18.49;28.94
55066;BME280;40964;42.114;24.220;2023-04-28T10:17:16;98080.03;;;18.91;30.95
55066;BME280;40964;42.114;24.220;2023-04-28T10:19:43;98084.84;;;18.99;30.13
55066;BME280;40964;42.114;24.220;2023-04-28T10:27:44;98080.81;;;18.92;29.58
55066;BME280;40964;42.114;24.220;2023-04-28T10:32:36;98069.94;;;19.09;30.23
55066;BME280;40964;42.114;24.220;2023-04-28T10:38:05;98065.97;;;19.62;28.04
55066;BME280;40964;42.114;24.220;2023-04-28T10:40:33;98054.47;;;19.06;28.44
55066;BME280;40964;42.114;24.220;2023-04-28T10:42:59;98044.88;;;19.30;29.20
55066;BME280;40964;42.114;24.220;2023-04-28T10:48:19;98051.84;;;19.72;27.94
55066;BME280;40964;42.114;24.220;2023-04-28T10:56:11;98044.06;;;19.19;28.14
55066;BME280;40964;42.114;24.220;2023-04-28T10:58:39;98043.53;;;19.38;29.17
55066;BME280;40964;42.114;24.220;2023-04-28T11:03:56;98035.28;;;19.75;27.72
55066;BME280;40964;42.114;24.220;2023-04-28T11:06:38;98036.28;;;19.99;30.36
55066;BME280;40964;42.114;24.220;2023-04-28T11:12:03;98026.66;;;20.73;25.79
55066;BME280;40964;42.114;24.220;2023-04-28T11:17:00;98029.84;;;20.75;28.14
55066;BME280;40964;42.114;24.220;2023-04-28T11:19:38;98022.66;;;21.15;26.80
55066;BME280;40964;42.114;24.220;2023-04-28T11:22:06;98008.50;;;21.48;29.72
55066;BME280;40964;42.114;24.220;2023-04-28T11:24:37;98018.31;;;21.24;30.63
55066;BME280;40964;42.114;24.220;2023-04-28T11:27:03;98000.19;;;20.77;26.65
55066;BME280;40964;42.114;24.220;2023-04-28T11:29:36;98008.78;;;20.68;29.40
55066;BME280;40964;42.114;24.220;2023-04-28T11:32:06;98007.94;;;20.73;30.24
55066;BME280;40964;42.114;24.220;2023-04-28T11:34:32;98007.88;;;20.83;29.12
55066;BME280;40964;42.114;24.220;2023-04-28T11:36:58;98012.19;;;20.79;31.01
55066;BME280;40964;42.114;24.220;2023-04-28T11:39:29;98004.09;;;20.89;29.66
55066;BME280;40964;42.114;24.220;2023-04-28T11:41:56;98003.75;;;20.62;25.88
55066;BME280;40964;42.114;24.220;2023-04-28T11:44:24;98003.03;;;20.36;26.88
55066;BME280;40964;42.114;24.220;2023-04-28T11:46:52;97997.91;;;20.55;28.05
55066;BME280;40964;42.114;24.220;2023-04-28T11:49:47;97985.63;;;20.93;28.15
55066;BME280;40964;42.114;24.220;2023-04-28T11:52:13;97978.38;;;20.98;26.92
55066;BME280;40964;42.114;24.220;2023-04-28T11:54:39;97988.72;;;20.76;25.95
55066;BME280;40964;42.114;24.220;2023-04-28T11:57:16;97984.47;;;20.65;30.58
55066;BME280;40964;42.114;24.220;2023-04-28T11:59:41;97977.47;;;21.13;31.91
55066;BME280;40964;42.114;24.220;2023-04-28T12:02:07;97978.75;;;21.21;29.37
55066;BME280;40964;42.114;24.220;2023-04-28T12:04:37;97982.47;;;21.20;25.47
55066;BME280;40964;42.114;24.220;2023-04-28T12:07:06;97971.31;;;21.13;26.32
55066;BME280;40964;42.114;24.220;2023-04-28T12:09:34;97968.38;;;21.09;28.14
55066;BME280;40964;42.114;24.220;2023-04-28T12:12:05;97966.78;;;21.13;27.17
55066;BME280;40964;42.114;24.220;2023-04-28T12:14:32;97952.19;;;21.30;25.65
55066;BME280;40964;42.114;24.220;2023-04-28T12:19:49;97954.63;;;20.53;28.86
55066;BME280;40964;42.114;24.220;2023-04-28T12:22:15;97956.25;;;20.49;28.24
55066;BME280;40964;42.114;24.220;2023-04-28T12:24:42;97953.09;;;20.36;27.81
55066;BME280;40964;42.114;24.220;2023-04-28T12:27:19;97948.25;;;20.38;27.44
55066;BME280;40964;42.114;24.220;2023-04-28T12:29:49;97952.75;;;20.53;27.20
55066;BME280;40964;42.114;24.220;2023-04-28T12:32:15;97951.09;;;20.62;25.33
55066;BME280;40964;42.114;24.220;2023-04-28T12:34:43;97946.19;;;20.75;28.10
55066;BME280;40964;42.114;24.220;2023-04-28T12:37:09;97941.53;;;20.90;25.02
55066;BME280;40964;42.114;24.220;2023-04-28T12:39:38;97927.56;;;20.98;24.47
55066;BME280;40964;42.114;24.220;2023-04-28T12:42:05;97913.81;;;21.10;27.13
55066;BME280;40964;42.114;24.220;2023-04-28T12:44:37;97925.25;;;21.21;28.45
55066;BME280;40964;42.114;24.220;2023-04-28T12:47:07;97920.66;;;21.27;25.75
55066;BME280;40964;42.114;24.220;2023-04-28T12:49:36;97923.31;;;20.97;26.24
55066;BME280;40964;42.114;24.220;2023-04-28T12:52:02;97915.81;;;21.29;25.89
55066;BME280;40964;42.114;24.220;2023-04-28T12:54:28;97907.16;;;21.66;25.72
55066;BME280;40964;42.114;24.220;2023-04-28T12:56:53;97901.81;;;22.08;29.82
55066;BME280;40964;42.114;24.220;2023-04-28T12:59:19;97899.00;;;22.37;27.26
55066;BME280;40964;42.114;24.220;2023-04-28T13:01:46;97896.50;;;22.79;27.42
55066;BME280;40964;42.114;24.220;2023-04-28T13:04:11;97893.56;;;23.13;27.02
55066;BME280;40964;42.114;24.220;2023-04-28T13:06:37;97884.81;;;23.21;25.09
55066;BME280;40964;42.114;24.220;2023-04-28T13:09:04;97896.84;;;23.23;25.58
55066;BME280;40964;42.114;24.220;2023-04-28T13:11:30;97891.00;;;23.21;24.84
55066;BME280;40964;42.114;24.220;2023-04-28T13:13:56;97899.53;;;22.91;23.96
55066;BME280;40964;42.114;24.220;2023-04-28T13:16:22;97889.53;;;22.26;24.43
55066;BME280;40964;42.114;24.220;2023-04-28T13:21:17;97891.16;;;21.03;24.47
55066;BME280;40964;42.114;24.220;2023-04-28T13:23:42;97881.22;;;21.37;28.02